createdAt,value
2018-06-11T00:00:14.322Z,0.00
2018-06-11T00:01:14.296Z,0.00
2018-06-11T00:02:14.254Z,0.00
2018-06-11T00:03:14.269Z,0.00
2018-06-11T00:04:14.190Z,0.00
2018-06-11T00:05:14.219Z,0.00
2018-06-11T00:06:14.117Z,0.00
2018-06-11T00:07:14.093Z,0.00
2018-06-11T00:08:14.059Z,0.00
2018-06-11T00:09:14.059Z,0.00
2018-06-11T00:10:14.017Z,0.00
2018-06-11T00:11:14.046Z,0.00
2018-06-11T00:12:13.936Z,0.00
2018-06-11T00:13:13.857Z,0.00
2018-06-11T00:14:13.862Z,0.00
2018-06-11T00:15:13.835Z,0.00
2018-06-11T00:16:13.803Z,0.00
2018-06-11T00:17:13.752Z,0.00
2018-06-11T00:18:13.755Z,0.00
2018-06-11T00:19:13.673Z,0.00
2018-06-11T00:20:13.644Z,0.00
2018-06-11T00:21:13.649Z,0.00
2018-06-11T00:22:13.557Z,0.00
2018-06-11T00:23:13.561Z,0.00
2018-06-11T00:24:13.488Z,0.00
2018-06-11T00:25:13.497Z,0.00
2018-06-11T00:26:13.474Z,0.00
2018-06-11T00:27:13.512Z,0.00
2018-06-11T00:28:13.353Z,0.00
2018-06-11T00:29:13.360Z,0.00
2018-06-11T00:30:13.304Z,0.00
2018-06-11T00:31:13.254Z,0.00
2018-06-11T00:32:13.240Z,0.00
2018-06-11T00:33:13.182Z,0.00
2018-06-11T00:34:13.185Z,0.00
2018-06-11T00:35:13.134Z,0.00
2018-06-11T00:36:13.094Z,0.00
2018-06-11T00:37:13.069Z,0.00
2018-06-11T00:38:13.048Z,0.00
2018-06-11T00:39:12.989Z,0.00
2018-06-11T00:40:12.961Z,0.00
2018-06-11T00:41:12.964Z,0.00
2018-06-11T00:42:12.878Z,0.00
2018-06-11T00:43:12.865Z,0.00
2018-06-11T00:44:12.821Z,0.00
2018-06-11T00:45:12.810Z,0.00
2018-06-11T00:46:12.810Z,0.00
2018-06-11T00:47:12.713Z,0.00
2018-06-11T00:48:12.705Z,0.00
2018-06-11T00:49:12.670Z,0.00
2018-06-11T00:50:12.734Z,0.00
2018-06-11T00:51:12.698Z,0.00
2018-06-11T00:52:12.588Z,0.00
2018-06-11T00:53:12.591Z,0.00
2018-06-11T00:54:12.476Z,0.00
2018-06-11T00:55:12.524Z,0.00
2018-06-11T00:56:12.473Z,0.00
2018-06-11T00:57:12.406Z,0.00
2018-06-11T00:58:12.366Z,0.00
2018-06-11T00:59:12.305Z,0.00
2018-06-11T01:00:12.295Z,0.00
2018-06-11T01:01:12.250Z,0.00
2018-06-11T01:02:12.206Z,0.00
2018-06-11T01:03:12.185Z,0.00
2018-06-11T01:04:12.207Z,0.00
2018-06-11T01:05:12.172Z,0.00
2018-06-11T01:06:12.248Z,0.00
2018-06-11T01:07:12.120Z,0.00
2018-06-11T01:08:12.036Z,0.00
2018-06-11T01:09:12.039Z,0.00
2018-06-11T01:10:11.989Z,0.00
2018-06-11T01:11:11.942Z,0.00
2018-06-11T01:12:11.903Z,0.00
2018-06-11T01:13:11.894Z,0.00
2018-06-11T01:14:11.811Z,0.00
2018-06-11T01:15:11.810Z,0.00
2018-06-11T01:16:11.783Z,0.00
2018-06-11T01:17:11.698Z,0.00
2018-06-11T01:18:12.388Z,0.00
2018-06-11T01:19:11.630Z,0.00
2018-06-11T01:20:11.613Z,0.00
2018-06-11T01:21:11.578Z,0.00
2018-06-11T01:22:11.529Z,0.00
2018-06-11T01:23:11.500Z,0.00
2018-06-11T01:24:11.504Z,0.00
2018-06-11T01:25:11.415Z,0.00
2018-06-11T01:26:11.444Z,0.00
2018-06-11T01:27:11.384Z,0.00
2018-06-11T01:28:11.404Z,0.00
2018-06-11T01:29:11.304Z,0.00
2018-06-11T01:30:11.298Z,0.00
2018-06-11T01:31:11.293Z,0.00
2018-06-11T01:32:11.196Z,0.00
2018-06-11T01:33:11.203Z,0.00
2018-06-11T01:34:11.148Z,0.00
2018-06-11T01:35:11.102Z,0.00
2018-06-11T01:36:11.151Z,0.00
2018-06-11T01:37:11.035Z,0.00
2018-06-11T01:38:11.048Z,0.00
2018-06-11T01:39:10.983Z,0.00
2018-06-11T01:40:10.932Z,0.00
2018-06-11T01:41:10.894Z,0.00
2018-06-11T01:42:10.905Z,0.00
2018-06-11T01:43:10.890Z,0.00
2018-06-11T01:44:10.824Z,0.00
2018-06-11T01:45:10.804Z,0.00
2018-06-11T01:46:10.755Z,0.00
2018-06-11T01:47:10.750Z,0.00
2018-06-11T01:48:10.703Z,0.00
2018-06-11T01:49:10.658Z,0.00
2018-06-11T01:50:10.591Z,0.00
2018-06-11T01:51:10.584Z,0.00
2018-06-11T01:52:10.536Z,0.00
2018-06-11T01:53:10.547Z,0.00
2018-06-11T01:54:10.474Z,0.00
2018-06-11T01:55:10.442Z,0.00
2018-06-11T01:56:10.450Z,0.00
2018-06-11T01:57:10.383Z,0.00
2018-06-11T01:58:10.379Z,0.00
2018-06-11T01:59:10.347Z,0.00
2018-06-11T02:00:10.264Z,0.00
2018-06-11T02:01:10.262Z,0.00
2018-06-11T02:02:10.200Z,0.00
2018-06-11T02:03:10.174Z,0.00
2018-06-11T02:04:10.164Z,0.00
2018-06-11T02:05:10.090Z,0.00
2018-06-11T02:06:10.065Z,0.00
2018-06-11T02:07:10.071Z,0.00
2018-06-11T02:08:10.050Z,0.00
2018-06-11T02:09:09.999Z,0.00
2018-06-11T02:10:09.970Z,0.00
2018-06-11T02:11:09.887Z,0.00
2018-06-11T02:12:09.860Z,0.00
2018-06-11T02:13:09.823Z,0.00
2018-06-11T02:14:09.865Z,4.00
2018-06-11T02:15:09.821Z,4.00
2018-06-11T02:16:09.775Z,4.00
2018-06-11T02:17:09.715Z,0.00
2018-06-11T02:18:09.662Z,4.00
2018-06-11T02:19:09.687Z,4.00
2018-06-11T02:20:09.592Z,4.00
2018-06-11T02:21:09.603Z,4.00
2018-06-11T02:22:09.544Z,4.00
2018-06-11T02:23:09.542Z,4.00
2018-06-11T02:24:09.533Z,4.00
2018-06-11T02:25:09.423Z,4.00
2018-06-11T02:26:09.913Z,4.00
2018-06-11T02:27:09.383Z,8.00
2018-06-11T02:28:09.353Z,8.00
2018-06-11T02:29:09.355Z,8.00
2018-06-11T02:30:09.290Z,8.00
2018-06-11T02:31:09.259Z,12.00
2018-06-11T02:32:09.299Z,8.00
2018-06-11T02:33:09.182Z,12.00
2018-06-11T02:34:09.174Z,12.00
2018-06-11T02:35:09.127Z,12.00
2018-06-11T02:36:09.119Z,12.00
2018-06-11T02:37:09.115Z,16.00
2018-06-11T02:38:09.107Z,16.00
2018-06-11T02:39:08.987Z,20.00
2018-06-11T02:40:08.947Z,24.00
2018-06-11T02:41:08.894Z,28.00
2018-06-11T02:42:09.418Z,32.00
2018-06-11T02:43:08.834Z,36.00
2018-06-11T02:44:08.879Z,40.00
2018-06-11T02:45:08.888Z,48.00
2018-06-11T02:46:08.761Z,52.00
2018-06-11T02:47:08.722Z,56.00
2018-06-11T02:48:08.679Z,64.00
2018-06-11T02:49:08.659Z,68.00
2018-06-11T02:50:08.624Z,72.00
2018-06-11T02:51:08.614Z,80.00
2018-06-11T02:52:08.582Z,84.00
2018-06-11T02:53:08.541Z,96.00
2018-06-11T02:54:08.476Z,100.00
2018-06-11T02:55:08.443Z,112.00
2018-06-11T02:56:08.422Z,128.00
2018-06-11T02:57:08.399Z,144.00
2018-06-11T02:58:08.400Z,164.00
2018-06-11T02:59:08.355Z,188.00
2018-06-11T03:00:08.296Z,212.00
2018-06-11T03:01:08.260Z,232.00
2018-06-11T03:02:08.303Z,248.00
2018-06-11T03:03:08.164Z,256.00
2018-06-11T03:04:08.158Z,252.00
2018-06-11T03:05:08.142Z,252.00
2018-06-11T03:06:08.081Z,252.00
2018-06-11T03:07:08.051Z,256.00
2018-06-11T03:08:08.145Z,264.00
2018-06-11T03:09:07.969Z,268.00
2018-06-11T03:10:07.981Z,268.00
2018-06-11T03:11:07.969Z,268.00
2018-06-11T03:12:07.871Z,280.00
2018-06-11T03:13:07.899Z,304.00
2018-06-11T03:14:07.821Z,340.00
2018-06-11T03:15:07.795Z,380.00
2018-06-11T03:16:07.764Z,420.00
2018-06-11T03:17:07.736Z,464.00
2018-06-11T03:18:07.717Z,508.00
2018-06-11T03:19:07.641Z,552.00
2018-06-11T03:20:07.612Z,596.00
2018-06-11T03:21:07.582Z,644.00
2018-06-11T03:22:07.600Z,704.00
2018-06-11T03:23:07.544Z,768.00
2018-06-11T03:24:07.545Z,836.00
2018-06-11T03:25:07.477Z,908.00
2018-06-11T03:26:07.520Z,996.00
2018-06-11T03:27:07.419Z,1100.00
2018-06-11T03:28:07.389Z,1216.00
2018-06-11T03:29:07.344Z,1344.00
2018-06-11T03:30:07.299Z,1484.00
2018-06-11T03:31:07.328Z,1652.00
2018-06-11T03:32:07.217Z,1848.00
2018-06-11T03:33:07.250Z,2028.00
2018-06-11T03:34:07.224Z,2176.00
2018-06-11T03:35:07.229Z,2276.00
2018-06-11T03:36:07.134Z,2296.00
2018-06-11T03:37:07.091Z,2260.00
2018-06-11T03:38:07.031Z,2212.00
2018-06-11T03:39:06.995Z,2180.00
2018-06-11T03:40:06.956Z,2148.00
2018-06-11T03:41:06.939Z,2124.00
2018-06-11T03:42:07.045Z,2088.00
2018-06-11T03:43:06.956Z,2080.00
2018-06-11T03:44:06.917Z,2112.00
2018-06-11T03:45:06.853Z,2180.00
2018-06-11T03:46:06.808Z,2268.00
2018-06-11T03:47:06.774Z,2364.00
2018-06-11T03:48:06.729Z,2432.00
2018-06-11T03:49:06.673Z,2500.00
2018-06-11T03:50:07.448Z,2564.00
2018-06-11T03:51:06.696Z,2604.00
2018-06-11T03:52:06.626Z,2600.00
2018-06-11T03:53:06.588Z,2564.00
2018-06-11T03:54:06.511Z,2508.00
2018-06-11T03:55:06.527Z,2460.00
2018-06-11T03:56:06.433Z,2412.00
2018-06-11T03:57:06.531Z,2348.00
2018-06-11T03:58:06.416Z,2276.00
2018-06-11T03:59:06.420Z,2192.00
2018-06-11T04:00:06.383Z,2108.00
2018-06-11T04:01:06.289Z,2072.00
2018-06-11T04:02:06.264Z,2112.00
2018-06-11T04:03:06.239Z,2228.00
2018-06-11T04:04:06.194Z,2384.00
2018-06-11T04:05:06.192Z,2564.00
2018-06-11T04:06:06.113Z,2792.00
2018-06-11T04:07:06.165Z,3076.00
2018-06-11T04:08:06.071Z,3436.00
2018-06-11T04:09:06.041Z,3928.00
2018-06-11T04:10:06.007Z,4468.00
2018-06-11T04:11:06.055Z,5116.00
2018-06-11T04:12:05.996Z,5728.00
2018-06-11T04:13:05.959Z,6344.00
2018-06-11T04:14:05.890Z,6800.00
2018-06-11T04:15:05.851Z,6980.00
2018-06-11T04:16:05.829Z,7112.00
2018-06-11T04:17:05.806Z,7332.00
2018-06-11T04:18:05.786Z,7556.00
2018-06-11T04:19:05.704Z,7588.00
2018-06-11T04:20:05.678Z,7584.00
2018-06-11T04:21:05.681Z,7480.00
2018-06-11T04:22:05.648Z,7184.00
2018-06-11T04:23:05.604Z,6696.00
2018-06-11T04:24:05.568Z,6232.00
2018-06-11T04:25:05.544Z,6016.00
2018-06-11T04:26:05.542Z,6020.00
2018-06-11T04:27:05.495Z,6016.00
2018-06-11T04:28:05.496Z,6000.00
2018-06-11T04:29:05.433Z,6068.00
2018-06-11T04:30:05.365Z,6072.00
2018-06-11T04:31:05.380Z,5908.00
2018-06-11T04:32:05.308Z,5832.00
2018-06-11T04:33:05.270Z,5868.00
2018-06-11T04:34:05.283Z,5908.00
2018-06-11T04:35:05.218Z,5840.00
2018-06-11T04:36:05.177Z,5620.00
2018-06-11T04:37:05.960Z,5364.00
2018-06-11T04:38:05.177Z,5080.00
2018-06-11T04:39:05.080Z,4844.00
2018-06-11T04:40:05.066Z,4596.00
2018-06-11T04:41:05.007Z,4420.00
2018-06-11T04:42:05.025Z,4380.00
2018-06-11T04:43:04.978Z,4384.00
2018-06-11T04:44:04.918Z,4280.00
2018-06-11T04:45:04.879Z,4064.00
2018-06-11T04:46:04.853Z,3920.00
2018-06-11T04:47:04.854Z,3904.00
2018-06-11T04:48:04.810Z,3992.00
2018-06-11T04:49:04.800Z,4280.00
2018-06-11T04:50:04.709Z,4648.00
2018-06-11T04:51:04.722Z,4908.00
2018-06-11T04:52:04.681Z,4972.00
2018-06-11T04:53:04.665Z,4788.00
2018-06-11T04:54:04.583Z,4452.00
2018-06-11T04:55:04.582Z,4192.00
2018-06-11T04:56:04.628Z,4188.00
2018-06-11T04:57:04.608Z,4368.00
2018-06-11T04:58:04.535Z,4628.00
2018-06-11T04:59:04.439Z,4956.00
2018-06-11T05:00:04.434Z,5376.00
2018-06-11T05:01:04.460Z,5776.00
2018-06-11T05:02:04.439Z,6084.00
2018-06-11T05:03:04.332Z,6476.00
2018-06-11T05:04:04.330Z,6972.00
2018-06-11T05:05:04.290Z,7256.00
2018-06-11T05:06:04.222Z,7232.00
2018-06-11T05:07:04.211Z,6960.00
2018-06-11T05:08:04.177Z,6796.00
2018-06-11T05:09:04.129Z,6784.00
2018-06-11T05:10:04.170Z,6696.00
2018-06-11T05:11:04.083Z,6620.00
2018-06-11T05:12:04.112Z,6460.00
2018-06-11T05:13:04.069Z,6064.00
2018-06-11T05:14:04.128Z,5748.00
2018-06-11T05:15:03.947Z,5884.00
2018-06-11T05:16:03.958Z,5992.00
2018-06-11T05:17:03.893Z,6160.00
2018-06-11T05:18:03.832Z,6444.00
2018-06-11T05:19:03.846Z,6876.00
2018-06-11T05:20:03.851Z,7052.00
2018-06-11T05:21:03.803Z,7408.00
2018-06-11T05:22:03.708Z,7584.00
2018-06-11T05:23:03.688Z,7588.00
2018-06-11T05:24:03.661Z,7504.00
2018-06-11T05:25:03.692Z,7188.00
2018-06-11T05:26:03.649Z,6716.00
2018-06-11T05:27:03.575Z,6280.00
2018-06-11T05:28:03.550Z,6016.00
2018-06-11T05:29:03.553Z,5772.00
2018-06-11T05:30:03.529Z,5528.00
2018-06-11T05:31:03.443Z,5380.00
2018-06-11T05:32:03.491Z,5408.00
2018-06-11T05:33:03.473Z,5732.00
2018-06-11T05:34:03.403Z,5920.00
2018-06-11T05:35:03.364Z,5764.00
2018-06-11T05:36:03.290Z,5580.00
2018-06-11T05:37:03.307Z,5372.00
2018-06-11T05:38:03.352Z,5276.00
2018-06-11T05:39:03.191Z,5376.00
2018-06-11T05:40:03.152Z,5568.00
2018-06-11T05:41:03.168Z,5816.00
2018-06-11T05:42:03.977Z,5860.00
2018-06-11T05:43:03.087Z,5712.00
2018-06-11T05:44:03.063Z,5748.00
2018-06-11T05:45:03.052Z,5992.00
2018-06-11T05:46:03.026Z,6176.00
2018-06-11T05:47:03.483Z,6296.00
2018-06-11T05:48:02.979Z,6280.00
2018-06-11T05:49:02.942Z,6212.00
2018-06-11T05:50:02.938Z,6320.00
2018-06-11T05:51:02.834Z,6460.00
2018-06-11T05:52:02.831Z,6652.00
2018-06-11T05:53:02.730Z,7132.00
2018-06-11T05:54:02.752Z,7624.00
2018-06-11T05:55:02.682Z,7844.00
2018-06-11T05:56:02.741Z,7760.00
2018-06-11T05:57:02.613Z,7592.00
2018-06-11T05:58:02.623Z,8360.00
2018-06-11T05:59:02.585Z,8696.00
2018-06-11T06:00:02.575Z,8504.00
2018-06-11T06:01:02.515Z,7956.00
2018-06-11T06:02:02.548Z,7120.00
2018-06-11T06:03:02.464Z,6616.00
2018-06-11T06:04:02.421Z,6472.00
2018-06-11T06:05:02.409Z,6532.00
2018-06-11T06:06:02.445Z,6408.00
2018-06-11T06:07:02.395Z,6200.00
2018-06-11T06:08:02.298Z,6108.00
2018-06-11T06:09:02.296Z,6248.00
2018-06-11T06:10:02.274Z,6152.00
2018-06-11T06:11:02.230Z,5676.00
2018-06-11T06:12:02.136Z,5748.00
2018-06-11T06:13:02.104Z,5964.00
2018-06-11T06:14:02.119Z,5976.00
2018-06-11T06:15:02.082Z,5916.00
2018-06-11T06:16:02.025Z,5804.00
2018-06-11T06:17:02.004Z,5968.00
2018-06-11T06:18:02.006Z,6268.00
2018-06-11T06:19:01.930Z,6704.00
2018-06-11T06:20:01.877Z,7428.00
2018-06-11T06:21:01.948Z,8376.00
2018-06-11T06:22:01.838Z,9452.00
2018-06-11T06:23:01.782Z,10396.00
2018-06-11T06:24:01.756Z,10336.00
2018-06-11T06:25:01.807Z,9664.00
2018-06-11T06:26:01.717Z,9364.00
2018-06-11T06:27:01.656Z,9376.00
2018-06-11T06:28:01.640Z,9296.00
2018-06-11T06:29:01.645Z,9232.00
2018-06-11T06:30:01.601Z,9420.00
2018-06-11T06:31:01.567Z,9524.00
2018-06-11T06:32:01.513Z,9368.00
2018-06-11T06:33:01.479Z,9156.00
2018-06-11T06:34:01.472Z,8820.00
2018-06-11T06:35:01.442Z,8672.00
2018-06-11T06:36:01.374Z,8808.00
2018-06-11T06:37:01.398Z,8736.00
2018-06-11T06:38:01.364Z,8776.00
2018-06-11T06:39:01.305Z,9352.00
2018-06-11T06:40:01.277Z,10580.00
2018-06-11T06:41:01.281Z,11388.00
2018-06-11T06:42:01.303Z,11348.00
2018-06-11T06:43:01.249Z,11108.00
2018-06-11T06:44:01.259Z,11076.00
2018-06-11T06:45:01.182Z,10988.00
2018-06-11T06:46:01.095Z,10472.00
2018-06-11T06:47:01.069Z,9916.00
2018-06-11T06:48:01.023Z,9900.00
2018-06-11T06:49:01.056Z,10184.00
2018-06-11T06:50:00.975Z,10156.00
2018-06-11T06:51:00.928Z,9636.00
2018-06-11T06:52:00.978Z,9128.00
2018-06-11T06:53:00.998Z,8928.00
2018-06-11T06:54:00.879Z,8720.00
2018-06-11T06:55:00.780Z,8468.00
2018-06-11T06:56:00.821Z,8428.00
2018-06-11T06:57:00.721Z,8932.00
2018-06-11T06:58:00.694Z,9860.00
2018-06-11T06:59:00.733Z,10456.00
2018-06-11T07:00:00.651Z,10184.00
2018-06-11T07:01:00.661Z,9988.00
2018-06-11T07:02:00.609Z,10216.00
2018-06-11T07:03:00.528Z,10520.00
2018-06-11T07:04:00.517Z,11044.00
2018-06-11T07:05:00.468Z,11940.00
2018-06-11T07:06:00.533Z,12692.00
2018-06-11T07:07:00.420Z,12880.00
2018-06-11T07:08:00.473Z,13020.00
2018-06-11T07:09:00.381Z,13016.00
2018-06-11T07:10:00.367Z,12652.00
2018-06-11T07:11:00.317Z,11896.00
2018-06-11T07:12:00.337Z,11732.00
2018-06-11T07:13:00.228Z,12444.00
2018-06-11T07:14:00.199Z,13076.00
2018-06-11T07:15:00.168Z,12404.00
2018-06-11T07:16:00.139Z,11432.00
2018-06-11T07:17:00.088Z,11028.00
2018-06-11T07:18:00.058Z,10884.00
2018-06-11T07:19:00.049Z,10676.00
2018-06-11T07:20:00.010Z,10400.00
2018-06-11T07:20:59.969Z,10388.00
2018-06-11T07:21:59.944Z,10696.00
2018-06-11T07:22:59.933Z,10876.00
2018-06-11T07:23:59.874Z,11088.00
2018-06-11T07:24:59.851Z,11876.00
2018-06-11T07:25:59.818Z,12932.00
2018-06-11T07:26:59.882Z,13780.00
2018-06-11T07:27:59.783Z,14476.00
2018-06-11T07:28:59.785Z,15684.00
2018-06-11T07:29:59.724Z,16652.00
2018-06-11T07:30:59.656Z,17400.00
2018-06-11T07:31:59.637Z,17396.00
2018-06-11T07:32:59.604Z,16916.00
2018-06-11T07:33:59.600Z,16712.00
2018-06-11T07:34:59.588Z,17284.00
2018-06-11T07:35:59.563Z,18592.00
2018-06-11T07:36:59.482Z,20736.00
2018-06-11T07:37:59.477Z,24864.00
2018-06-11T07:38:59.431Z,29344.00
2018-06-11T07:39:59.409Z,28992.00
2018-06-11T07:40:59.394Z,25536.00
2018-06-11T07:41:59.305Z,21248.00
2018-06-11T07:42:59.325Z,18208.00
2018-06-11T07:43:59.270Z,15916.00
2018-06-11T07:44:59.247Z,14092.00
2018-06-11T07:45:59.207Z,12624.00
2018-06-11T07:46:59.167Z,12008.00
2018-06-11T07:47:59.179Z,11816.00
2018-06-11T07:48:59.106Z,11836.00
2018-06-11T07:49:59.075Z,11468.00
2018-06-11T07:51:00.032Z,10900.00
2018-06-11T07:51:59.530Z,10128.00
2018-06-11T07:52:58.995Z,9628.00
2018-06-11T07:53:58.942Z,8912.00
2018-06-11T07:54:58.956Z,8032.00
2018-06-11T07:55:58.931Z,8152.00
2018-06-11T07:56:58.855Z,9136.00
2018-06-11T07:57:58.873Z,9620.00
2018-06-11T07:58:58.811Z,10184.00
2018-06-11T07:59:58.856Z,10868.00
2018-06-11T08:00:58.754Z,11192.00
2018-06-11T08:01:58.780Z,10196.00
2018-06-11T08:02:58.724Z,9160.00
2018-06-11T08:03:58.672Z,8980.00
2018-06-11T08:04:58.623Z,8524.00
2018-06-11T08:05:58.601Z,8148.00
2018-06-11T08:06:58.580Z,7948.00
2018-06-11T08:07:58.569Z,7932.00
2018-06-11T08:08:58.513Z,8040.00
2018-06-11T08:09:58.462Z,8316.00
2018-06-11T08:10:58.508Z,8644.00
2018-06-11T08:11:58.395Z,8644.00
2018-06-11T08:12:58.375Z,8384.00
2018-06-11T08:13:58.350Z,8416.00
2018-06-11T08:14:58.313Z,8432.00
2018-06-11T08:15:58.282Z,8396.00
2018-06-11T08:16:58.226Z,8336.00
2018-06-11T08:17:58.198Z,8528.00
2018-06-11T08:18:58.195Z,8592.00
2018-06-11T08:19:58.165Z,8444.00
2018-06-11T08:20:59.042Z,8376.00
2018-06-11T08:21:58.165Z,8444.00
2018-06-11T08:22:58.069Z,8552.00
2018-06-11T08:23:58.026Z,8808.00
2018-06-11T08:24:57.999Z,9828.00
2018-06-11T08:25:58.542Z,10892.00
2018-06-11T08:26:57.919Z,11396.00
2018-06-11T08:27:57.937Z,11428.00
2018-06-11T08:28:57.892Z,10720.00
2018-06-11T08:29:57.833Z,10008.00
2018-06-11T08:30:57.814Z,10004.00
2018-06-11T08:31:57.766Z,10548.00
2018-06-11T08:32:57.846Z,11528.00
2018-06-11T08:33:57.768Z,12684.00
2018-06-11T08:34:57.714Z,13080.00
2018-06-11T08:35:57.658Z,13240.00
2018-06-11T08:36:57.720Z,13964.00
2018-06-11T08:37:58.540Z,15080.00
2018-06-11T08:38:57.613Z,15712.00
2018-06-11T08:39:57.552Z,15644.00
2018-06-11T08:40:57.494Z,15576.00
2018-06-11T08:41:57.461Z,16216.00
2018-06-11T08:42:57.453Z,16992.00
2018-06-11T08:43:57.384Z,17600.00
2018-06-11T08:44:57.372Z,17360.00
2018-06-11T08:45:57.353Z,16996.00
2018-06-11T08:46:57.297Z,16364.00
2018-06-11T08:47:57.261Z,16064.00
2018-06-11T08:48:57.260Z,16840.00
2018-06-11T08:49:57.219Z,17952.00
2018-06-11T08:50:57.187Z,18688.00
2018-06-11T08:51:57.177Z,19200.00
2018-06-11T08:52:57.148Z,19456.00
2018-06-11T08:53:57.082Z,20000.00
2018-06-11T08:54:57.047Z,20608.00
2018-06-11T08:55:57.019Z,20832.00
2018-06-11T08:56:56.997Z,20224.00
2018-06-11T08:57:56.965Z,19040.00
2018-06-11T08:58:56.913Z,17632.00
2018-06-11T08:59:56.920Z,16536.00
2018-06-11T09:00:56.917Z,15776.00
2018-06-11T09:01:56.841Z,14620.00
2018-06-11T09:02:56.881Z,13552.00
2018-06-11T09:03:56.767Z,12648.00
2018-06-11T09:04:56.735Z,12352.00
2018-06-11T09:05:56.710Z,12488.00
2018-06-11T09:06:56.740Z,12776.00
2018-06-11T09:07:56.671Z,12664.00
2018-06-11T09:08:56.608Z,12496.00
2018-06-11T09:09:56.596Z,12696.00
2018-06-11T09:10:56.613Z,13488.00
2018-06-11T09:11:56.518Z,14824.00
2018-06-11T09:12:56.532Z,15280.00
2018-06-11T09:13:56.531Z,14192.00
2018-06-11T09:14:56.435Z,13012.00
2018-06-11T09:15:56.428Z,13344.00
2018-06-11T09:16:56.372Z,13956.00
2018-06-11T09:17:56.367Z,14792.00
2018-06-11T09:18:57.057Z,15244.00
2018-06-11T09:19:56.309Z,14624.00
2018-06-11T09:20:56.268Z,13792.00
2018-06-11T09:21:57.058Z,13228.00
2018-06-11T09:22:56.250Z,13248.00
2018-06-11T09:23:56.149Z,13236.00
2018-06-11T09:24:56.108Z,13092.00
2018-06-11T09:25:56.093Z,12580.00
2018-06-11T09:26:56.116Z,12224.00
2018-06-11T09:27:56.025Z,12288.00
2018-06-11T09:28:56.041Z,12516.00
2018-06-11T09:29:55.968Z,12988.00
2018-06-11T09:30:55.953Z,13692.00
2018-06-11T09:31:55.984Z,14556.00
2018-06-11T09:32:55.864Z,15820.00
2018-06-11T09:33:55.924Z,17140.00
2018-06-11T09:34:55.825Z,17824.00
2018-06-11T09:35:55.784Z,17124.00
2018-06-11T09:36:55.746Z,16284.00
2018-06-11T09:37:55.708Z,15756.00
2018-06-11T09:38:55.670Z,15504.00
2018-06-11T09:39:55.664Z,15368.00
2018-06-11T09:40:55.624Z,14828.00
2018-06-11T09:41:55.588Z,13796.00
2018-06-11T09:42:55.681Z,13228.00
2018-06-11T09:43:55.671Z,13616.00
2018-06-11T09:44:55.491Z,13876.00
2018-06-11T09:45:55.464Z,13504.00
2018-06-11T09:46:55.435Z,13576.00
2018-06-11T09:47:55.455Z,14428.00
2018-06-11T09:48:55.400Z,16188.00
2018-06-11T09:49:55.368Z,18144.00
2018-06-11T09:50:55.333Z,20064.00
2018-06-11T09:51:55.324Z,23168.00
2018-06-11T09:52:55.269Z,25536.00
2018-06-11T09:53:55.292Z,25376.00
2018-06-11T09:54:55.180Z,23488.00
2018-06-11T09:55:55.209Z,21728.00
2018-06-11T09:56:55.121Z,21120.00
2018-06-11T09:57:55.175Z,20768.00
2018-06-11T09:58:55.573Z,20352.00
2018-06-11T09:59:55.101Z,20512.00
2018-06-11T10:00:55.042Z,21248.00
2018-06-11T10:01:55.067Z,22336.00
2018-06-11T10:02:54.979Z,22592.00
2018-06-11T10:03:54.910Z,21696.00
2018-06-11T10:04:54.888Z,20000.00
2018-06-11T10:05:54.848Z,19040.00
2018-06-11T10:06:54.824Z,18880.00
2018-06-11T10:07:54.794Z,18944.00
2018-06-11T10:08:54.759Z,19360.00
2018-06-11T10:09:54.774Z,20128.00
2018-06-11T10:10:54.685Z,20512.00
2018-06-11T10:11:54.669Z,20736.00
2018-06-11T10:12:54.699Z,20672.00
2018-06-11T10:13:54.625Z,20672.00
2018-06-11T10:14:54.594Z,20928.00
2018-06-11T10:15:54.557Z,21216.00
2018-06-11T10:16:54.533Z,21760.00
2018-06-11T10:17:54.528Z,22688.00
2018-06-11T10:18:54.459Z,23584.00
2018-06-11T10:19:54.455Z,24192.00
2018-06-11T10:20:54.397Z,25088.00
2018-06-11T10:21:54.376Z,26368.00
2018-06-11T10:22:54.350Z,27616.00
2018-06-11T10:23:54.312Z,28992.00
2018-06-11T10:24:54.283Z,30304.00
2018-06-11T10:25:54.237Z,30560.00
2018-06-11T10:26:54.211Z,29408.00
2018-06-11T10:27:54.227Z,31936.00
2018-06-11T10:28:54.147Z,33184.00
2018-06-11T10:29:54.129Z,32832.00
2018-06-11T10:30:54.098Z,31968.00
2018-06-11T10:31:54.054Z,31424.00
2018-06-11T10:32:54.054Z,31840.00
2018-06-11T10:33:54.031Z,32480.00
2018-06-11T10:34:54.034Z,32032.00
2018-06-11T10:35:53.949Z,30400.00
2018-06-11T10:36:53.946Z,28096.00
2018-06-11T10:37:53.950Z,26464.00
2018-06-11T10:38:53.867Z,27328.00
2018-06-11T10:39:53.835Z,29312.00
2018-06-11T10:40:53.802Z,32224.00
2018-06-11T10:41:53.809Z,36768.00
2018-06-11T10:42:53.762Z,39296.00
2018-06-11T10:43:53.723Z,38528.00
2018-06-11T10:44:53.704Z,34944.00
2018-06-11T10:45:53.667Z,31232.00
2018-06-11T10:46:53.675Z,29440.00
2018-06-11T10:47:53.604Z,28928.00
2018-06-11T10:48:53.628Z,29472.00
2018-06-11T10:49:53.522Z,32320.00
2018-06-11T10:50:53.501Z,34848.00
2018-06-11T10:51:53.481Z,33216.00
2018-06-11T10:52:53.450Z,30144.00
2018-06-11T10:53:53.416Z,32704.00
2018-06-11T10:54:53.393Z,36288.00
2018-06-11T10:55:53.357Z,35584.00
2018-06-11T10:56:53.334Z,34912.00
2018-06-11T10:57:53.315Z,37760.00
2018-06-11T10:58:53.287Z,40928.00
2018-06-11T10:59:53.236Z,42240.00
2018-06-11T11:00:53.224Z,43744.00
2018-06-11T11:01:53.185Z,42304.00
2018-06-11T11:02:53.158Z,36672.00
2018-06-11T11:03:53.130Z,36800.00
2018-06-11T11:04:53.103Z,33600.00
2018-06-11T11:05:53.196Z,29184.00
2018-06-11T11:06:53.046Z,29536.00
2018-06-11T11:07:53.013Z,30784.00
2018-06-11T11:08:53.065Z,32320.00
2018-06-11T11:09:52.975Z,32320.00
2018-06-11T11:10:52.928Z,36448.00
2018-06-11T11:11:52.937Z,44864.00
2018-06-11T11:12:52.869Z,48864.00
2018-06-11T11:13:52.868Z,50560.00
2018-06-11T11:14:52.854Z,51936.00
2018-06-11T11:15:52.801Z,53440.00
2018-06-11T11:16:52.776Z,50208.00
2018-06-11T11:17:52.766Z,51936.00
2018-06-11T11:18:52.698Z,54816.00
2018-06-11T11:19:52.701Z,49536.00
2018-06-11T11:20:52.666Z,45280.00
2018-06-11T11:21:52.759Z,39776.00
2018-06-11T11:22:52.626Z,33184.00
2018-06-11T11:23:52.630Z,37536.00
2018-06-11T11:24:52.588Z,43712.00
2018-06-11T11:25:52.512Z,49600.00
2018-06-11T11:26:52.558Z,45984.00
2018-06-11T11:27:52.485Z,41856.00
2018-06-11T11:28:52.449Z,43264.00
2018-06-11T11:29:52.401Z,46624.00
2018-06-11T11:30:52.389Z,50176.00
2018-06-11T11:31:52.348Z,45728.00
2018-06-11T11:32:52.402Z,38048.00
2018-06-11T11:33:52.388Z,33088.00
2018-06-11T11:34:52.281Z,32800.00
2018-06-11T11:35:52.263Z,32320.00
2018-06-11T11:36:52.215Z,31136.00
2018-06-11T11:37:52.231Z,29216.00
2018-06-11T11:38:52.170Z,26496.00
2018-06-11T11:39:52.141Z,24448.00
2018-06-11T11:40:52.100Z,24512.00
2018-06-11T11:41:52.119Z,22784.00
2018-06-11T11:42:52.080Z,21344.00
2018-06-11T11:43:52.120Z,20672.00
2018-06-11T11:44:52.623Z,20896.00
2018-06-11T11:45:51.957Z,21984.00
2018-06-11T11:46:51.976Z,23584.00
2018-06-11T11:47:51.944Z,25120.00
2018-06-11T11:48:51.982Z,26848.00
2018-06-11T11:49:51.840Z,28928.00
2018-06-11T11:50:51.846Z,31456.00
2018-06-11T11:51:51.817Z,34976.00
2018-06-11T11:52:51.832Z,39520.00
2018-06-11T11:53:51.747Z,45344.00
2018-06-11T11:54:51.810Z,52640.00
2018-06-11T11:55:51.698Z,54656.00
2018-06-11T11:56:51.644Z,57824.00
2018-06-11T11:57:51.703Z,72544.00
2018-06-11T11:58:51.620Z,72416.00
2018-06-11T11:59:51.647Z,72096.00
2018-06-11T12:00:52.118Z,73312.00
2018-06-11T12:01:51.617Z,72352.00
2018-06-11T12:02:51.601Z,68320.00
2018-06-11T12:03:51.485Z,64256.00
2018-06-11T12:04:51.459Z,57440.00
2018-06-11T12:05:51.489Z,49728.00
2018-06-11T12:06:51.388Z,46560.00
2018-06-11T12:07:51.356Z,52832.00
2018-06-11T12:08:51.348Z,56800.00
2018-06-11T12:09:51.301Z,54464.00
2018-06-11T12:10:51.286Z,54624.00
2018-06-11T12:11:51.310Z,52416.00